createdAt,value
2017-05-11T04:40:19.200Z,46.87
2017-05-11T04:41:15.662Z,46.85
2017-05-11T04:42:15.967Z,46.85
2017-05-11T04:43:16.318Z,46.38
2017-05-11T04:44:21.882Z,46.69
2017-05-11T04:45:16.930Z,46.80
2017-05-11T04:46:16.761Z,46.73
2017-05-11T04:47:17.892Z,46.83
2017-05-11T04:48:16.114Z,46.84
2017-05-11T04:49:15.047Z,46.88
2017-05-11T04:50:17.077Z,46.87
2017-05-11T04:51:15.603Z,46.91
2017-05-11T04:52:19.068Z,46.95
2017-05-11T04:53:16.907Z,46.86
2017-05-11T04:54:15.665Z,46.70
2017-05-11T04:55:16.086Z,46.10
2017-05-11T04:56:17.881Z,46.01
2017-05-11T04:57:18.606Z,46.18
2017-05-11T04:58:16.429Z,46.58
2017-05-11T04:59:15.745Z,46.58
2017-05-11T05:00:16.996Z,45.95
2017-05-11T05:01:15.745Z,45.79
2017-05-11T05:02:18.887Z,46.05
2017-05-11T05:03:16.130Z,46.54
2017-05-11T05:04:16.029Z,46.71
2017-05-11T05:05:17.932Z,46.80
2017-05-11T05:06:15.699Z,46.71
2017-05-11T05:07:15.933Z,46.83
2017-05-11T05:08:15.938Z,46.84
2017-05-11T05:09:15.332Z,46.78
2017-05-11T05:10:15.428Z,46.86
2017-05-11T05:11:16.429Z,46.80
2017-05-11T05:12:16.071Z,46.85
2017-05-11T05:13:15.932Z,46.83
2017-05-11T05:14:17.339Z,46.84
2017-05-11T05:15:15.178Z,46.88
2017-05-11T05:16:15.611Z,46.87
2017-05-11T05:17:17.488Z,46.88
2017-05-11T05:18:15.666Z,46.90
2017-05-11T05:19:15.093Z,46.68
2017-05-11T05:20:14.742Z,46.13
2017-05-11T05:21:15.137Z,45.97
2017-05-11T05:22:15.550Z,46.16
2017-05-11T05:23:18.371Z,46.63
2017-05-11T05:24:17.661Z,46.74
2017-05-11T05:25:18.206Z,46.73
2017-05-11T05:26:18.370Z,46.78
2017-05-11T05:27:15.385Z,46.83
2017-05-11T05:28:18.931Z,46.83
2017-05-11T05:29:17.225Z,46.77
2017-05-11T05:30:16.240Z,46.53
2017-05-11T05:31:14.977Z,46.37
2017-05-11T05:32:16.157Z,46.27
2017-05-11T05:33:15.663Z,46.20
2017-05-11T05:34:17.930Z,45.47
2017-05-11T05:35:16.604Z,45.10
2017-05-11T05:36:16.404Z,44.92
2017-05-11T05:37:18.107Z,45.12
2017-05-11T05:38:16.727Z,45.17
2017-05-11T05:39:17.320Z,45.07
2017-05-11T05:40:15.701Z,44.90
2017-05-11T05:41:15.451Z,44.82
2017-05-11T05:42:15.250Z,44.83
2017-05-11T05:43:19.596Z,45.16
2017-05-11T05:44:19.857Z,45.72
2017-05-11T05:45:17.431Z,45.71
2017-05-11T05:46:15.291Z,45.94
2017-05-11T05:47:17.986Z,46.11
2017-05-11T05:48:15.579Z,45.71
2017-05-11T05:49:16.116Z,46.03
2017-05-11T05:50:17.126Z,46.04
2017-05-11T05:51:16.556Z,46.28
2017-05-11T05:52:16.319Z,46.22
2017-05-11T05:53:16.119Z,46.30
2017-05-11T05:54:14.581Z,46.29
2017-05-11T05:55:16.840Z,46.37
2017-05-11T05:56:15.544Z,46.23
2017-05-11T05:57:17.186Z,45.96
2017-05-11T05:58:15.427Z,45.89
2017-05-11T05:59:16.441Z,46.45
2017-05-11T06:00:15.862Z,46.28
2017-05-11T06:01:16.332Z,46.20
2017-05-11T06:02:15.469Z,45.82
2017-05-11T06:03:15.631Z,45.91
2017-05-11T06:04:16.799Z,45.79
2017-05-11T06:05:16.693Z,45.91
2017-05-11T06:06:19.971Z,45.91
2017-05-11T06:07:15.941Z,45.97
2017-05-11T06:08:18.310Z,45.57
2017-05-11T06:09:15.406Z,46.01
2017-05-11T06:10:17.591Z,45.52
2017-05-11T06:11:15.430Z,45.79
2017-05-11T06:12:15.262Z,46.07
2017-05-11T06:13:15.780Z,45.52
2017-05-11T06:14:16.765Z,45.53
2017-05-11T06:15:26.056Z,45.42
2017-05-11T06:16:18.020Z,45.45
2017-05-11T06:17:15.674Z,45.29
2017-05-11T06:18:16.715Z,45.66
2017-05-11T06:19:16.317Z,45.79
2017-05-11T06:20:15.912Z,45.83
2017-05-11T06:21:15.947Z,45.88
2017-05-11T06:22:15.152Z,45.85
2017-05-11T06:23:17.768Z,45.62
2017-05-11T06:24:16.477Z,45.95
2017-05-11T06:25:18.066Z,45.71
2017-05-11T06:26:15.853Z,45.78
2017-05-11T06:27:15.898Z,45.72
2017-05-11T06:28:16.357Z,45.83
2017-05-11T06:29:16.437Z,45.75
2017-05-11T06:30:15.117Z,45.45
2017-05-11T06:31:18.375Z,45.62
2017-05-11T06:32:16.927Z,45.66
2017-05-11T06:33:15.337Z,45.80
2017-05-11T06:34:16.455Z,45.64
2017-05-11T06:35:16.137Z,45.65
2017-05-11T06:36:15.826Z,45.56
2017-05-11T06:37:15.833Z,45.55
2017-05-11T06:38:15.459Z,45.61
2017-05-11T06:39:15.766Z,45.58
2017-05-11T06:40:17.781Z,45.36
2017-05-11T06:41:15.956Z,45.11
2017-05-11T06:42:16.835Z,45.46
2017-05-11T06:43:15.846Z,45.37
2017-05-11T06:44:15.108Z,45.18
2017-05-11T06:45:14.905Z,44.82
2017-05-11T06:46:21.725Z,45.13
2017-05-11T06:47:16.479Z,44.57
2017-05-11T06:48:15.725Z,44.74
2017-05-11T06:49:15.670Z,44.97
2017-05-11T06:50:16.428Z,44.40
2017-05-11T06:51:21.420Z,44.91
2017-05-11T06:52:15.394Z,44.68
2017-05-11T06:53:16.410Z,44.64
2017-05-11T06:54:15.616Z,44.44
2017-05-11T06:55:15.562Z,44.63
2017-05-11T06:56:15.505Z,44.57
2017-05-11T06:57:17.109Z,44.67
2017-05-11T06:58:15.307Z,44.27
2017-05-11T06:59:17.196Z,44.72
2017-05-11T07:00:15.839Z,44.68
2017-05-11T07:01:15.409Z,44.16
2017-05-11T07:02:17.159Z,44.40
2017-05-11T07:03:16.951Z,44.52
2017-05-11T07:04:15.308Z,44.63
2017-05-11T07:05:15.920Z,43.96
2017-05-11T07:06:15.200Z,44.51
2017-05-11T07:07:16.249Z,44.72
2017-05-11T07:08:15.563Z,44.36
2017-05-11T07:09:18.402Z,44.09
2017-05-11T07:10:16.848Z,44.30
2017-05-11T07:11:16.686Z,43.51
2017-05-11T07:12:19.835Z,44.19
2017-05-11T07:13:16.484Z,43.96
2017-05-11T07:14:15.427Z,43.52
2017-05-11T07:15:17.058Z,43.51
2017-05-11T07:16:15.718Z,43.56
2017-05-11T07:17:16.007Z,43.71
2017-05-11T07:18:16.471Z,44.13
2017-05-11T07:19:15.971Z,44.18
2017-05-11T07:20:16.390Z,44.32
2017-05-11T07:21:15.873Z,43.83
2017-05-11T07:22:16.568Z,44.22
2017-05-11T07:23:16.072Z,43.48
2017-05-11T07:24:18.739Z,43.93
2017-05-11T07:25:15.510Z,43.74
2017-05-11T07:26:16.719Z,43.37
2017-05-11T07:27:18.468Z,43.68
2017-05-11T07:28:16.229Z,43.78
2017-05-11T07:29:15.927Z,43.40
2017-05-11T07:30:16.425Z,43.92
2017-05-11T07:31:16.698Z,43.71
2017-05-11T07:32:15.911Z,43.25
2017-05-11T07:33:15.583Z,43.95
2017-05-11T07:34:17.720Z,43.77
2017-05-11T07:35:17.683Z,43.53
2017-05-11T07:36:15.699Z,43.25
2017-05-11T07:37:21.774Z,43.93
2017-05-11T07:38:15.559Z,43.98
2017-05-11T07:39:14.386Z,44.02
2017-05-11T07:40:15.830Z,43.78
2017-05-11T07:41:16.191Z,43.27
2017-05-11T07:42:18.304Z,43.94
2017-05-11T07:43:20.331Z,43.30
2017-05-11T07:44:16.133Z,43.71
2017-05-11T07:45:14.883Z,43.54
2017-05-11T07:46:18.134Z,43.48
2017-05-11T07:47:16.378Z,43.90
2017-05-11T07:48:15.232Z,43.43
2017-05-11T07:49:16.121Z,43.53
2017-05-11T07:50:15.971Z,43.37
2017-05-11T07:51:16.267Z,42.51
2017-05-11T07:52:15.217Z,43.33
2017-05-11T07:53:16.815Z,42.90
2017-05-11T07:54:16.002Z,43.44
2017-05-11T07:55:17.524Z,43.19
2017-05-11T07:56:16.191Z,43.45
2017-05-11T07:57:16.898Z,43.16
2017-05-11T07:58:20.380Z,43.71
2017-05-11T07:59:18.012Z,43.18
2017-05-11T08:00:21.849Z,43.38
2017-05-11T08:01:17.991Z,42.46
2017-05-11T08:02:15.671Z,42.89
2017-05-11T08:03:16.565Z,43.34
2017-05-11T08:04:23.756Z,43.17
2017-05-11T08:05:16.753Z,42.68
2017-05-11T08:06:16.515Z,43.12
2017-05-11T08:07:16.249Z,43.25
2017-05-11T08:08:15.524Z,43.10
2017-05-11T08:09:17.008Z,42.09
2017-05-11T08:10:16.638Z,42.68
2017-05-11T08:11:15.854Z,42.33
2017-05-11T08:12:18.074Z,42.47
2017-05-11T08:13:15.948Z,43.07
2017-05-11T08:14:15.738Z,42.50
2017-05-11T08:15:17.200Z,43.00
2017-05-11T08:16:15.967Z,42.71
2017-05-11T08:17:16.777Z,42.70
2017-05-11T08:18:16.060Z,42.35
2017-05-11T08:19:17.011Z,41.36
2017-05-11T08:20:18.740Z,41.32
2017-05-11T08:21:18.026Z,41.45
2017-05-11T08:22:18.143Z,41.33
2017-05-11T08:23:16.070Z,41.44
2017-05-11T08:24:16.759Z,41.67
2017-05-11T08:25:16.224Z,41.91
2017-05-11T08:26:14.476Z,42.30
2017-05-11T08:27:18.934Z,42.39
2017-05-11T08:28:15.911Z,42.47
2017-05-11T08:29:18.083Z,42.68
2017-05-11T08:30:16.238Z,42.30
2017-05-11T08:31:16.232Z,42.38
2017-05-11T08:32:16.889Z,41.61
2017-05-11T08:33:15.603Z,42.09
2017-05-11T08:34:14.657Z,41.87
2017-05-11T08:35:15.275Z,41.23
2017-05-11T08:36:16.141Z,41.00
2017-05-11T08:37:16.096Z,39.98
2017-05-11T08:38:21.365Z,40.52
2017-05-11T08:39:17.136Z,40.88
2017-05-11T08:40:18.736Z,39.54
2017-05-11T08:41:16.424Z,40.01
2017-05-11T08:42:17.318Z,41.15
2017-05-11T08:43:16.754Z,41.59
2017-05-11T08:44:15.722Z,41.77
2017-05-11T08:45:20.364Z,42.09
2017-05-11T08:46:15.339Z,42.17
2017-05-11T08:47:15.729Z,42.32
2017-05-11T08:48:15.566Z,42.57
2017-05-11T08:49:19.952Z,42.69
2017-05-11T08:50:18.183Z,42.72
2017-05-11T08:51:16.739Z,42.75
2017-05-11T08:52:15.880Z,42.76
2017-05-11T08:53:16.110Z,42.65
2017-05-11T08:54:14.573Z,42.81
2017-05-11T08:55:17.912Z,42.94
2017-05-11T08:56:15.361Z,42.90
2017-05-11T08:57:17.306Z,42.99
2017-05-11T08:58:16.839Z,42.91
2017-05-11T08:59:15.964Z,42.92
2017-05-11T09:00:16.075Z,42.98
2017-05-11T09:01:16.198Z,43.02
2017-05-11T09:02:15.790Z,43.04
2017-05-11T09:03:18.825Z,43.11
2017-05-11T09:04:15.480Z,43.16
2017-05-11T09:05:15.708Z,43.10
2017-05-11T09:06:15.435Z,43.07
2017-05-11T09:07:15.698Z,43.15
2017-05-11T09:08:16.632Z,43.22
2017-05-11T09:09:14.940Z,43.25
2017-05-11T09:10:15.668Z,43.22
2017-05-11T09:11:18.588Z,42.66
2017-05-11T09:12:17.527Z,42.47
2017-05-11T09:13:17.171Z,42.78
2017-05-11T09:14:15.960Z,43.12
2017-05-11T09:15:17.063Z,43.27
2017-05-11T09:16:16.554Z,43.33
2017-05-11T09:17:20.989Z,43.38
2017-05-11T09:18:17.178Z,43.50
2017-05-11T09:19:17.017Z,43.58
2017-05-11T09:20:17.785Z,43.48
2017-05-11T09:21:16.320Z,43.55
2017-05-11T09:22:18.240Z,43.59
2017-05-11T09:23:15.575Z,43.62
2017-05-11T09:24:16.691Z,43.62
2017-05-11T09:25:15.449Z,43.66
2017-05-11T09:26:15.995Z,43.73
2017-05-11T09:27:16.868Z,43.76
2017-05-11T09:28:16.274Z,43.61
2017-05-11T09:29:16.489Z,43.06
2017-05-11T09:30:24.974Z,42.92
2017-05-11T09:31:16.227Z,42.94
2017-05-11T09:32:14.613Z,42.93
2017-05-11T09:33:15.708Z,43.63
2017-05-11T09:34:16.103Z,43.70
2017-05-11T09:35:15.693Z,43.78
2017-05-11T09:36:16.266Z,43.83
2017-05-11T09:37:15.032Z,42.83
2017-05-11T09:38:19.757Z,41.46
2017-05-11T09:39:15.699Z,41.95
2017-05-11T09:40:18.606Z,42.42
2017-05-11T09:41:17.795Z,42.39
2017-05-11T09:42:16.210Z,42.72
2017-05-11T09:43:15.264Z,42.30
2017-05-11T09:44:16.542Z,42.48
2017-05-11T09:45:16.720Z,42.27
2017-05-11T09:46:16.114Z,41.66
2017-05-11T09:47:19.775Z,41.31
2017-05-11T09:48:17.543Z,41.59
2017-05-11T09:49:17.262Z,41.23
2017-05-11T09:50:15.833Z,41.61
2017-05-11T09:51:16.822Z,41.47
2017-05-11T09:52:16.994Z,41.37
2017-05-11T09:53:18.046Z,41.10
2017-05-11T09:54:14.856Z,40.36
2017-05-11T09:55:17.425Z,40.85
2017-05-11T09:56:16.753Z,40.95
2017-05-11T09:57:16.739Z,39.97
2017-05-11T09:58:15.856Z,40.44
2017-05-11T09:59:15.992Z,40.40
2017-05-11T10:00:15.387Z,40.15
2017-05-11T10:01:15.380Z,39.72
2017-05-11T10:02:16.821Z,38.75
2017-05-11T10:03:16.362Z,39.57
2017-05-11T10:04:15.793Z,39.94
2017-05-11T10:05:15.460Z,39.75
2017-05-11T10:06:18.610Z,39.72
2017-05-11T10:07:16.357Z,39.71
2017-05-11T10:08:15.982Z,39.65
2017-05-11T10:09:16.372Z,39.41
2017-05-11T10:10:17.936Z,39.26
2017-05-11T10:11:15.356Z,39.49
2017-05-11T10:12:17.172Z,39.13
2017-05-11T10:13:16.140Z,38.56
2017-05-11T10:14:15.901Z,38.41
2017-05-11T10:15:17.884Z,38.19
2017-05-11T10:16:16.033Z,38.22
2017-05-11T10:17:17.626Z,38.75
2017-05-11T10:18:15.055Z,38.51
2017-05-11T10:19:20.566Z,38.12
2017-05-11T10:20:16.647Z,35.27
2017-05-11T10:21:16.066Z,35.99
2017-05-11T10:22:17.857Z,36.17
2017-05-11T10:23:16.711Z,35.57
2017-05-11T10:24:15.783Z,35.26
2017-05-11T10:25:15.560Z,36.26
2017-05-11T10:26:15.979Z,35.99
2017-05-11T10:27:16.182Z,35.70
2017-05-11T10:28:15.336Z,35.93
2017-05-11T10:29:15.703Z,35.95
2017-05-11T10:30:15.980Z,37.26
2017-05-11T10:31:17.465Z,36.03
2017-05-11T10:32:15.107Z,36.94
2017-05-11T10:33:15.436Z,38.31
2017-05-11T10:34:16.295Z,40.48
2017-05-11T10:35:16.912Z,39.87
2017-05-11T10:36:16.366Z,39.64
2017-05-11T10:37:15.432Z,38.79
2017-05-11T10:38:16.636Z,37.08
2017-05-11T10:39:17.960Z,35.84
2017-05-11T10:40:16.622Z,34.50
2017-05-11T10:41:23.345Z,33.90
2017-05-11T10:42:16.249Z,34.04
2017-05-11T10:43:17.603Z,32.95
2017-05-11T10:44:19.802Z,32.95
2017-05-11T10:45:16.002Z,33.00
2017-05-11T10:46:15.616Z,33.16
2017-05-11T10:47:18.233Z,33.43
2017-05-11T10:48:15.382Z,32.67
2017-05-11T10:49:20.992Z,32.83
2017-05-11T10:50:19.886Z,33.01
2017-05-11T10:51:16.125Z,33.40
2017-05-11T10:52:15.952Z,34.16
2017-05-11T10:53:18.866Z,33.71
2017-05-11T10:54:16.722Z,33.55
2017-05-11T10:55:16.236Z,33.22
2017-05-11T10:56:15.786Z,34.05
2017-05-11T10:57:15.550Z,33.70
2017-05-11T10:58:15.774Z,33.92
2017-05-11T10:59:17.376Z,33.64
2017-05-11T11:00:17.719Z,33.34
2017-05-11T11:01:16.157Z,33.51
2017-05-11T11:02:17.073Z,33.30
2017-05-11T11:03:15.706Z,33.69
2017-05-11T11:04:16.025Z,32.94
2017-05-11T11:05:16.229Z,33.42
2017-05-11T11:06:15.970Z,33.30
2017-05-11T11:07:15.730Z,33.61
2017-05-11T11:08:16.735Z,32.79
2017-05-11T11:09:15.635Z,32.94
2017-05-11T11:10:17.540Z,32.93
2017-05-11T11:11:17.397Z,32.48
2017-05-11T11:12:16.439Z,33.12
2017-05-11T11:13:19.332Z,32.61
2017-05-11T11:14:19.401Z,32.73
2017-05-11T11:15:15.966Z,32.62
2017-05-11T11:16:16.267Z,33.05
2017-05-11T11:17:15.215Z,32.29
2017-05-11T11:18:15.332Z,32.33
2017-05-11T11:19:14.643Z,32.77
2017-05-11T11:20:14.956Z,32.90
2017-05-11T11:21:14.147Z,32.55
2017-05-11T11:22:15.448Z,33.14
2017-05-11T11:23:14.535Z,33.34
2017-05-11T11:24:15.012Z,34.31
2017-05-11T11:25:15.486Z,33.32
2017-05-11T11:26:14.961Z,32.97
2017-05-11T11:27:14.782Z,33.58
2017-05-11T11:28:15.945Z,33.70
2017-05-11T11:29:14.600Z,33.86
2017-05-11T11:30:23.657Z,33.77
2017-05-11T11:31:14.705Z,33.32
2017-05-11T11:32:16.477Z,34.50
2017-05-11T11:33:15.109Z,33.82
2017-05-11T11:34:14.542Z,34.51
2017-05-11T11:35:15.599Z,34.84
2017-05-11T11:36:15.204Z,34.78
2017-05-11T11:37:14.570Z,34.66
2017-05-11T11:38:14.999Z,35.09
2017-05-11T11:39:14.242Z,34.88
2017-05-11T11:40:14.429Z,35.48
2017-05-11T11:41:17.286Z,35.06
2017-05-11T11:42:14.425Z,35.17
2017-05-11T11:43:14.502Z,35.00
2017-05-11T11:44:14.765Z,35.40
2017-05-11T11:45:16.006Z,35.64
2017-05-11T11:46:14.708Z,35.47
2017-05-11T11:47:14.886Z,35.69
2017-05-11T11:48:15.808Z,35.37
2017-05-11T11:49:15.506Z,35.79
2017-05-11T11:50:15.447Z,35.43
2017-05-11T11:51:14.430Z,35.03
2017-05-11T11:52:14.755Z,36.04
2017-05-11T11:53:14.999Z,36.01
2017-05-11T11:54:14.216Z,35.71
2017-05-11T11:55:11.628Z,35.83
2017-05-11T11:56:15.908Z,35.64
2017-05-11T11:57:12.723Z,36.10
2017-05-11T11:58:15.125Z,36.08
2017-05-11T11:59:15.690Z,36.66
2017-05-11T12:00:12.247Z,36.76
2017-05-11T12:01:15.519Z,36.99
2017-05-11T12:02:15.546Z,37.10
2017-05-11T12:03:13.176Z,37.15
2017-05-11T12:04:16.030Z,36.65
2017-05-11T12:05:15.254Z,36.66
2017-05-11T12:06:15.567Z,36.93
2017-05-11T12:07:15.933Z,37.35
2017-05-11T12:08:16.075Z,37.50
2017-05-11T12:09:16.966Z,37.67
2017-05-11T12:10:15.764Z,37.75
2017-05-11T12:11:16.415Z,37.90
2017-05-11T12:12:15.711Z,37.85
2017-05-11T12:13:16.173Z,38.01
2017-05-11T12:14:15.249Z,38.09
2017-05-11T12:15:21.240Z,38.14
2017-05-11T12:16:15.603Z,38.21
2017-05-11T12:17:15.780Z,38.28
2017-05-11T12:18:15.808Z,38.33
2017-05-11T12:19:15.806Z,38.37
2017-05-11T12:20:15.904Z,38.40
2017-05-11T12:21:16.168Z,38.37
2017-05-11T12:22:14.955Z,38.35
2017-05-11T12:23:15.133Z,38.62
2017-05-11T12:24:15.173Z,38.75
2017-05-11T12:25:16.055Z,38.68
2017-05-11T12:26:14.925Z,38.88
2017-05-11T12:27:15.996Z,39.19
2017-05-11T12:28:15.054Z,39.09
2017-05-11T12:29:15.109Z,39.58
2017-05-11T12:30:15.306Z,39.51
2017-05-11T12:31:16.211Z,39.52
2017-05-11T12:32:16.346Z,39.61
2017-05-11T12:33:16.877Z,39.85
2017-05-11T12:34:15.852Z,39.76
2017-05-11T12:35:16.100Z,39.57
2017-05-11T12:36:15.641Z,39.57
2017-05-11T12:37:16.043Z,39.76
2017-05-11T12:38:15.164Z,40.10
2017-05-11T12:39:15.341Z,39.81
2017-05-11T12:40:15.227Z,39.92
2017-05-11T12:41:15.523Z,39.97
2017-05-11T12:42:15.377Z,40.04
2017-05-11T12:43:13.694Z,40.20
2017-05-11T12:44:15.615Z,39.63
2017-05-11T12:45:16.512Z,39.38
2017-05-11T12:46:15.490Z,39.28
2017-05-11T12:47:15.900Z,39.31
2017-05-11T12:48:15.204Z,39.31
2017-05-11T12:49:15.318Z,39.38
2017-05-11T12:50:16.178Z,39.35
2017-05-11T12:51:16.355Z,39.25
2017-05-11T12:52:14.988Z,39.14
2017-05-11T12:53:15.177Z,39.23
2017-05-11T12:54:15.385Z,39.77
2017-05-11T12:55:12.218Z,39.96
2017-05-11T12:56:16.068Z,40.00
2017-05-11T12:57:15.627Z,40.08
2017-05-11T12:58:15.818Z,39.93
2017-05-11T12:59:16.307Z,39.49
2017-05-11T13:00:15.398Z,39.33
2017-05-11T13:01:15.838Z,39.48
2017-05-11T13:02:15.682Z,39.99
2017-05-11T13:03:15.573Z,40.13
2017-05-11T13:04:15.541Z,40.21
2017-05-11T13:05:15.998Z,40.19
2017-05-11T13:06:15.511Z,40.16
2017-05-11T13:07:15.576Z,40.13
2017-05-11T13:08:17.257Z,40.15
2017-05-11T13:09:15.221Z,41.43
2017-05-11T13:10:16.221Z,40.79
2017-05-11T13:11:15.406Z,40.83
2017-05-11T13:12:16.036Z,40.33
2017-05-11T13:13:14.943Z,40.38
2017-05-11T13:14:16.556Z,40.44
2017-05-11T13:15:15.626Z,40.54
2017-05-11T13:16:16.706Z,40.50
2017-05-11T13:17:15.505Z,40.21
2017-05-11T13:18:16.313Z,40.30
2017-05-11T13:19:15.350Z,40.23
2017-05-11T13:20:16.413Z,40.30
2017-05-11T13:21:15.649Z,40.40
2017-05-11T13:22:15.583Z,40.40
2017-05-11T13:23:15.512Z,40.70
2017-05-11T13:24:16.289Z,41.03
2017-05-11T13:25:16.298Z,41.35
2017-05-11T13:26:15.302Z,40.92
2017-05-11T13:27:15.307Z,40.57
2017-05-11T13:28:15.618Z,40.54
2017-05-11T13:29:13.298Z,40.39
2017-05-11T13:30:15.673Z,39.65
2017-05-11T13:31:15.534Z,39.70
2017-05-11T13:32:13.314Z,39.57
2017-05-11T13:33:15.062Z,39.39
2017-05-11T13:34:15.129Z,39.58
2017-05-11T13:35:15.130Z,39.58
2017-05-11T13:36:15.295Z,39.55
2017-05-11T13:37:15.254Z,40.11
2017-05-11T13:38:15.706Z,39.98
2017-05-11T13:39:15.645Z,40.17
2017-05-11T13:40:15.588Z,40.22
2017-05-11T13:41:15.835Z,40.37
2017-05-11T13:42:16.478Z,40.20
2017-05-11T13:43:15.372Z,40.21
2017-05-11T13:44:15.429Z,39.77
2017-05-11T13:45:15.276Z,39.87
2017-05-11T13:46:15.709Z,39.89
2017-05-11T13:47:15.606Z,40.03
2017-05-11T13:48:15.696Z,39.88
2017-05-11T13:49:16.075Z,39.81
2017-05-11T13:50:15.380Z,39.52
2017-05-11T13:51:15.405Z,39.79
2017-05-11T13:52:15.973Z,39.90
2017-05-11T13:53:14.887Z,39.45
2017-05-11T13:54:15.523Z,39.22
2017-05-11T13:55:15.479Z,39.05
2017-05-11T13:56:15.605Z,39.30
2017-05-11T13:57:15.569Z,39.53
2017-05-11T13:58:15.993Z,38.56
2017-05-11T13:59:14.934Z,39.40
2017-05-11T14:00:15.141Z,39.01
2017-05-11T14:01:15.589Z,38.97
2017-05-11T14:02:16.869Z,39.00
2017-05-11T14:03:15.760Z,39.41
2017-05-11T14:04:15.709Z,39.34
2017-05-11T14:05:17.313Z,38.91
2017-05-11T14:06:15.466Z,39.15
2017-05-11T14:07:16.103Z,39.01
2017-05-11T14:08:15.346Z,39.75
2017-05-11T14:09:17.767Z,39.63
2017-05-11T14:10:16.646Z,39.33
2017-05-11T14:11:12.749Z,39.28
2017-05-11T14:12:15.528Z,39.05
2017-05-11T14:13:12.027Z,39.41
2017-05-11T14:14:15.935Z,39.41
2017-05-11T14:15:15.804Z,39.48
2017-05-11T14:16:15.992Z,39.66
2017-05-11T14:17:15.666Z,40.20
2017-05-11T14:18:15.692Z,40.39
2017-05-11T14:19:16.586Z,40.45
2017-05-11T14:20:16.296Z,40.56
2017-05-11T14:21:16.161Z,40.52
2017-05-11T14:22:14.959Z,40.67
2017-05-11T14:23:18.025Z,40.75
2017-05-11T14:24:14.943Z,40.77
2017-05-11T14:25:15.117Z,40.77
2017-05-11T14:26:15.007Z,40.87
2017-05-11T14:27:15.015Z,40.88
2017-05-11T14:28:14.756Z,40.92
2017-05-11T14:29:12.945Z,40.99
2017-05-11T14:30:11.637Z,41.05
2017-05-11T14:31:15.802Z,41.04
2017-05-11T14:32:16.238Z,41.05
2017-05-11T14:33:15.764Z,41.07
2017-05-11T14:34:15.811Z,41.07
2017-05-11T14:35:21.657Z,41.13
2017-05-11T14:36:15.775Z,41.05
2017-05-11T14:37:15.787Z,40.80
2017-05-11T14:38:15.685Z,40.97
2017-05-11T14:39:15.877Z,40.97
2017-05-11T14:40:16.002Z,41.22
2017-05-11T14:41:15.680Z,41.21
2017-05-11T14:42:16.353Z,41.12
2017-05-11T14:43:15.590Z,41.18
2017-05-11T14:44:17.600Z,41.29
2017-05-11T14:45:15.832Z,41.27
2017-05-11T14:46:15.974Z,41.31
2017-05-11T14:47:15.628Z,41.38
2017-05-11T14:48:15.733Z,41.42
2017-05-11T14:49:15.741Z,41.43
2017-05-11T14:50:17.565Z,41.42
2017-05-11T14:51:16.205Z,41.54
2017-05-11T14:52:14.995Z,41.55
2017-05-11T14:53:15.104Z,41.58
2017-05-11T14:54:15.857Z,41.39
2017-05-11T14:55:11.521Z,41.57
2017-05-11T14:56:16.234Z,41.56
2017-05-11T14:57:16.178Z,41.58
2017-05-11T14:58:15.721Z,41.65
2017-05-11T14:59:16.606Z,41.64
2017-05-11T15:00:15.472Z,41.65
2017-05-11T15:01:15.479Z,41.73
2017-05-11T15:02:16.281Z,41.70
2017-05-11T15:03:15.640Z,41.77
2017-05-11T15:04:15.640Z,41.76
2017-05-11T15:05:16.546Z,41.77
2017-05-11T15:06:16.507Z,41.89
2017-05-11T15:07:16.402Z,41.88
2017-05-11T15:08:16.998Z,41.93
2017-05-11T15:09:15.108Z,42.03
2017-05-11T15:10:16.532Z,42.05
2017-05-11T15:11:16.027Z,42.03
2017-05-11T15:12:15.275Z,42.11
2017-05-11T15:13:15.391Z,41.99
2017-05-11T15:14:16.006Z,41.94
2017-05-11T15:15:15.511Z,41.95
2017-05-11T15:16:15.763Z,41.52
2017-05-11T15:17:17.093Z,41.90
2017-05-11T15:18:15.382Z,42.07
2017-05-11T15:19:15.338Z,42.21
2017-05-11T15:20:15.464Z,42.26
2017-05-11T15:21:17.410Z,42.32
2017-05-11T15:22:15.974Z,42.46
2017-05-11T15:23:15.378Z,42.54
2017-05-11T15:24:16.632Z,42.57
2017-05-11T15:25:15.566Z,42.63
2017-05-11T15:26:15.751Z,42.58
2017-05-11T15:27:13.397Z,42.55
2017-05-11T15:28:15.686Z,42.59
2017-05-11T15:29:15.849Z,42.65
2017-05-11T15:30:15.943Z,42.91
2017-05-11T15:31:14.975Z,42.82
2017-05-11T15:32:15.141Z,42.60
2017-05-11T15:33:14.939Z,42.81
2017-05-11T15:34:15.806Z,42.80
2017-05-11T15:35:15.899Z,42.87
2017-05-11T15:36:15.968Z,42.93
2017-05-11T15:37:15.202Z,43.00
2017-05-11T15:38:15.340Z,43.05
2017-05-11T15:39:15.368Z,43.11
2017-05-11T15:40:16.126Z,43.16
2017-05-11T15:41:15.225Z,43.20
2017-05-11T15:42:15.473Z,43.18
2017-05-11T15:43:15.998Z,43.24
2017-05-11T15:44:15.201Z,43.25
2017-05-11T15:45:15.553Z,43.29
2017-05-11T15:46:15.744Z,43.40
2017-05-11T15:47:13.673Z,43.34
2017-05-11T15:48:10.777Z,42.76
2017-05-11T15:49:16.126Z,42.85
2017-05-11T15:50:16.477Z,43.29
2017-05-11T15:51:15.706Z,43.40
2017-05-11T15:52:16.070Z,43.48
2017-05-11T15:53:15.676Z,43.45
2017-05-11T15:54:16.234Z,43.45
2017-05-11T15:55:15.611Z,43.47
2017-05-11T15:56:15.492Z,42.86
2017-05-11T15:57:15.320Z,42.75
2017-05-11T15:58:16.375Z,42.91
2017-05-11T15:59:15.536Z,43.37
2017-05-11T16:00:15.797Z,43.53
2017-05-11T16:01:16.314Z,43.57
2017-05-11T16:02:15.521Z,43.59
2017-05-11T16:03:15.710Z,43.60
2017-05-11T16:04:15.762Z,43.58
2017-05-11T16:05:15.567Z,43.69
2017-05-11T16:06:15.892Z,43.68
2017-05-11T16:07:16.056Z,43.70
2017-05-11T16:08:15.826Z,43.70
2017-05-11T16:09:17.365Z,43.73
2017-05-11T16:10:16.596Z,43.75
2017-05-11T16:11:16.434Z,43.71
2017-05-11T16:12:15.670Z,43.77
2017-05-11T16:13:16.996Z,43.79
2017-05-11T16:14:15.185Z,43.74
2017-05-11T16:15:16.796Z,43.85
2017-05-11T16:16:16.467Z,43.89
2017-05-11T16:17:15.943Z,43.86
2017-05-11T16:18:15.336Z,43.92
2017-05-11T16:19:15.600Z,43.83
2017-05-11T16:20:16.237Z,43.89
2017-05-11T16:21:14.147Z,43.89
2017-05-11T16:22:15.322Z,43.93
2017-05-11T16:23:15.763Z,44.01
2017-05-11T16:24:15.832Z,44.06
2017-05-11T16:25:13.080Z,43.97
2017-05-11T16:26:16.613Z,43.98
2017-05-11T16:27:13.578Z,43.99
2017-05-11T16:28:16.752Z,44.02
2017-05-11T16:29:15.838Z,44.02
2017-05-11T16:30:16.088Z,44.03
2017-05-11T16:31:15.085Z,44.07
2017-05-11T16:32:15.281Z,44.02
2017-05-11T16:33:15.501Z,44.08
2017-05-11T16:34:15.496Z,44.09
2017-05-11T16:35:17.091Z,44.13
2017-05-11T16:36:15.194Z,44.11
2017-05-11T16:37:11.950Z,44.11
2017-05-11T16:38:16.036Z,44.19
2017-05-11T16:39:15.184Z,44.17
2017-05-11T16:40:15.286Z,44.18
2017-05-11T16:41:15.941Z,44.29
2017-05-11T16:42:14.854Z,44.28
2017-05-11T16:43:16.249Z,44.26
2017-05-11T16:44:11.728Z,44.36
2017-05-11T16:45:15.185Z,44.31
2017-05-11T16:46:15.235Z,44.32
2017-05-11T16:47:15.949Z,44.32
2017-05-11T16:48:15.574Z,44.36
2017-05-11T16:49:16.176Z,44.36
2017-05-11T16:50:15.980Z,44.38
2017-05-11T16:51:15.945Z,44.38
2017-05-11T16:52:15.395Z,44.38
2017-05-11T16:53:15.783Z,44.41
2017-05-11T16:54:15.799Z,44.44
2017-05-11T16:55:15.952Z,44.41
2017-05-11T16:56:15.234Z,44.51
2017-05-11T16:57:15.476Z,44.51
2017-05-11T16:58:13.129Z,44.39
2017-05-11T16:59:15.396Z,44.49
2017-05-11T17:00:15.481Z,44.54
2017-05-11T17:01:15.610Z,44.54
2017-05-11T17:02:15.474Z,44.62
2017-05-11T17:03:15.456Z,44.62
2017-05-11T17:04:15.494Z,44.60
2017-05-11T17:05:16.122Z,44.61
2017-05-11T17:06:16.874Z,44.61
2017-05-11T17:07:15.005Z,44.71
2017-05-11T17:08:12.700Z,44.44
2017-05-11T17:09:16.017Z,44.01
2017-05-11T17:10:16.439Z,43.60
2017-05-11T17:11:15.477Z,43.57
2017-05-11T17:12:15.500Z,43.12
2017-05-11T17:13:15.575Z,42.62
2017-05-11T17:14:15.181Z,42.32
2017-05-11T17:15:15.722Z,42.49
2017-05-11T17:16:16.003Z,42.05
2017-05-11T17:17:15.917Z,41.31
2017-05-11T17:18:15.381Z,41.43
2017-05-11T17:19:16.377Z,41.53
2017-05-11T17:20:16.092Z,41.52
2017-05-11T17:21:15.275Z,41.53
2017-05-11T17:22:15.737Z,41.54
2017-05-11T17:23:16.815Z,41.40
2017-05-11T17:24:16.184Z,40.80
2017-05-11T17:25:15.275Z,40.73
2017-05-11T17:26:15.548Z,40.45
2017-05-11T17:27:15.565Z,40.70
2017-05-11T17:28:15.767Z,40.77
2017-05-11T17:29:15.721Z,40.60
2017-05-11T17:30:16.065Z,41.05
2017-05-11T17:31:15.133Z,41.27
2017-05-11T17:32:15.198Z,41.49